sensor_id;sensor_type;location;lat;lon;timestamp;temperature;humidity
54202;DHT22;40108;53.152;5.844;2023-08-31T11:12:47;21.20;69.70
54202;DHT22;40108;53.152;5.844;2023-08-31T11:23:39;20.80;69.10
54202;DHT22;40108;53.152;5.844;2023-08-31T11:26:13;21.10;70.40
54202;DHT22;40108;53.152;5.844;2023-08-31T11:28:44;21.00;68.10
54202;DHT22;40108;53.152;5.844;2023-08-31T11:31:23;20.60;67.80
54202;DHT22;40108;53.152;5.844;2023-08-31T11:33:49;20.20;67.50
54202;DHT22;40108;53.152;5.844;2023-08-31T11:36:54;19.80;68.70
54202;DHT22;40108;53.152;5.844;2023-08-31T11:42:44;19.20;71.70
54202;DHT22;40108;53.152;5.844;2023-08-31T11:45:11;19.00;72.80
54202;DHT22;40108;53.152;5.844;2023-08-31T11:47:40;18.80;73.30
54202;DHT22;40108;53.152;5.844;2023-08-31T11:50:10;18.60;73.90
54202;DHT22;40108;53.152;5.844;2023-08-31T11:52:39;18.40;74.20
54202;DHT22;40108;53.152;5.844;2023-08-31T11:55:25;18.40;75.70
54202;DHT22;40108;53.152;5.844;2023-08-31T12:00:43;19.00;75.30
54202;DHT22;40108;53.152;5.844;2023-08-31T12:03:12;19.10;75.30
54202;DHT22;40108;53.152;5.844;2023-08-31T12:05:45;19.10;75.70
54202;DHT22;40108;53.152;5.844;2023-08-31T12:08:30;18.70;76.70
54202;DHT22;40108;53.152;5.844;2023-08-31T12:11:01;18.20;76.20
54202;DHT22;40108;53.152;5.844;2023-08-31T12:13:28;17.90;77.50
54202;DHT22;40108;53.152;5.844;2023-08-31T12:15:55;17.60;78.10
54202;DHT22;40108;53.152;5.844;2023-08-31T12:18:23;17.40;78.80
54202;DHT22;40108;53.152;5.844;2023-08-31T12:20:52;17.20;79.90
54202;DHT22;40108;53.152;5.844;2023-08-31T12:25:56;16.70;78.50
54202;DHT22;40108;53.152;5.844;2023-08-31T12:28:23;16.60;78.30
54202;DHT22;40108;53.152;5.844;2023-08-31T12:41:19;16.50;81.80
54202;DHT22;40108;53.152;5.844;2023-08-31T12:43:45;16.80;83.40
54202;DHT22;40108;53.152;5.844;2023-08-31T12:46:11;17.10;84.20
54202;DHT22;40108;53.152;5.844;2023-08-31T12:48:40;17.60;82.90
54202;DHT22;40108;53.152;5.844;2023-08-31T12:51:16;17.70;81.20
54202;DHT22;40108;53.152;5.844;2023-08-31T12:58:17;17.70;78.70
54202;DHT22;40108;53.152;5.844;2023-08-31T13:13:32;17.80;75.40
54202;DHT22;40108;53.152;5.844;2023-08-31T13:15:58;17.50;78.10
54202;DHT22;40108;53.152;5.844;2023-08-31T13:18:23;17.20;80.00
54202;DHT22;40108;53.152;5.844;2023-08-31T13:21:21;16.80;80.90
54202;DHT22;40108;53.152;5.844;2023-08-31T13:31:35;17.10;85.40
54202;DHT22;40108;53.152;5.844;2023-08-31T13:38:22;17.50;83.80
54202;DHT22;40108;53.152;5.844;2023-08-31T13:44:29;17.70;82.30
54202;DHT22;40108;53.152;5.844;2023-08-31T13:46:58;17.80;81.90
54202;DHT22;40108;53.152;5.844;2023-08-31T13:49:35;17.90;81.80
54202;DHT22;40108;53.152;5.844;2023-08-31T13:52:26;17.90;80.90
54202;DHT22;40108;53.152;5.844;2023-08-31T13:55:03;17.80;80.80
54202;DHT22;40108;53.152;5.844;2023-08-31T13:57:36;17.90;80.50
54202;DHT22;40108;53.152;5.844;2023-08-31T14:01:14;18.00;79.70
54202;DHT22;40108;53.152;5.844;2023-08-31T14:03:43;18.00;78.60
54202;DHT22;40108;53.152;5.844;2023-08-31T14:06:11;18.00;78.30
54202;DHT22;40108;53.152;5.844;2023-08-31T14:25:25;17.90;77.00
54202;DHT22;40108;53.152;5.844;2023-08-31T14:27:51;17.80;76.80
54202;DHT22;40108;53.152;5.844;2023-08-31T14:30:20;17.80;77.30
54202;DHT22;40108;53.152;5.844;2023-08-31T14:33:38;17.90;78.00
54202;DHT22;40108;53.152;5.844;2023-08-31T14:36:18;18.00;78.10
54202;DHT22;40108;53.152;5.844;2023-08-31T14:38:47;17.90;76.70
54202;DHT22;40108;53.152;5.844;2023-08-31T14:41:15;17.80;76.40
54202;DHT22;40108;53.152;5.844;2023-08-31T15:06:02;17.60;78.30
54202;DHT22;40108;53.152;5.844;2023-08-31T15:12:47;17.70;76.50
54202;DHT22;40108;53.152;5.844;2023-08-31T15:15:17;17.80;75.30
54202;DHT22;40108;53.152;5.844;2023-08-31T16:07:22;17.60;74.60
54202;DHT22;40108;53.152;5.844;2023-08-31T18:08:11;15.10;78.40
54202;DHT22;40108;53.152;5.844;2023-08-31T18:11:02;15.10;78.60
54202;DHT22;40108;53.152;5.844;2023-08-31T19:07:28;13.60;82.10
54202;DHT22;40108;53.152;5.844;2023-08-31T19:10:09;13.50;83.00
54202;DHT22;40108;53.152;5.844;2023-08-31T19:12:39;13.40;82.80
54202;DHT22;40108;53.152;5.844;2023-08-31T19:15:07;13.40;82.30
54202;DHT22;40108;53.152;5.844;2023-08-31T19:36:50;13.10;83.20
54202;DHT22;40108;53.152;5.844;2023-08-31T20:12:33;12.30;85.50
54202;DHT22;40108;53.152;5.844;2023-08-31T20:15:06;12.30;85.70
54202;DHT22;40108;53.152;5.844;2023-08-31T20:53:14;12.00;88.00
54202;DHT22;40108;53.152;5.844;2023-08-31T20:55:50;12.00;87.90
54202;DHT22;40108;53.152;5.844;2023-08-31T20:58:15;12.00;88.10
54202;DHT22;40108;53.152;5.844;2023-08-31T21:00:44;12.00;88.30
54202;DHT22;40108;53.152;5.844;2023-08-31T21:03:10;12.10;88.30
